sensor_id;sensor_type;location;lat;lon;timestamp;pressure;altitude;pressure_sealevel;temperature;humidity
76753;BME280;65687;51.308;16.916;2023-09-19T00:04:39;98971.00;;;19.04;79.09
76753;BME280;65687;51.308;16.916;2023-09-19T00:09:40;98956.66;;;18.96;79.69
76753;BME280;65687;51.308;16.916;2023-09-19T00:14:42;98960.33;;;18.91;80.10
76753;BME280;65687;51.308;16.916;2023-09-19T00:19:43;98968.61;;;18.84;80.04
76753;BME280;65687;51.308;16.916;2023-09-19T00:24:44;98968.91;;;18.81;80.10
76753;BME280;65687;51.308;16.916;2023-09-19T00:29:46;98967.27;;;18.77;80.35
76753;BME280;65687;51.308;16.916;2023-09-19T00:34:47;98961.08;;;18.75;80.35
76753;BME280;65687;51.308;16.916;2023-09-19T00:39:48;98955.92;;;18.73;80.51
76753;BME280;65687;51.308;16.916;2023-09-19T00:44:49;98949.92;;;18.71;80.55
76753;BME280;65687;51.308;16.916;2023-09-19T00:49:51;98954.64;;;18.69;80.76
76753;BME280;65687;51.308;16.916;2023-09-19T00:54:54;98953.71;;;18.64;80.97
76753;BME280;65687;51.308;16.916;2023-09-19T00:59:56;98952.66;;;18.63;81.10
76753;BME280;65687;51.308;16.916;2023-09-19T01:04:58;98954.12;;;18.59;81.42
76753;BME280;65687;51.308;16.916;2023-09-19T01:10:03;98954.61;;;18.58;81.51
76753;BME280;65687;51.308;16.916;2023-09-19T01:31:11;98959.64;;;18.37;83.89
76753;BME280;65687;51.308;16.916;2023-09-19T01:36:12;98954.48;;;18.27;84.68
76753;BME280;65687;51.308;16.916;2023-09-19T01:41:18;98954.02;;;18.21;85.54
76753;BME280;65687;51.308;16.916;2023-09-19T01:46:30;98958.29;;;18.13;86.36
76753;BME280;65687;51.308;16.916;2023-09-19T01:51:59;98952.42;;;18.10;86.71
76753;BME280;65687;51.308;16.916;2023-09-19T01:57:09;98952.04;;;18.08;87.39
76753;BME280;65687;51.308;16.916;2023-09-19T02:02:16;98950.64;;;18.06;87.36
76753;BME280;65687;51.308;16.916;2023-09-19T02:07:18;98945.09;;;18.02;87.53
76753;BME280;65687;51.308;16.916;2023-09-19T02:12:19;98942.92;;;17.97;88.06
76753;BME280;65687;51.308;16.916;2023-09-19T02:17:20;98941.21;;;17.89;88.55
76753;BME280;65687;51.308;16.916;2023-09-19T02:22:21;98933.20;;;17.82;89.39
76753;BME280;65687;51.308;16.916;2023-09-19T02:27:23;98928.05;;;17.81;89.77
76753;BME280;65687;51.308;16.916;2023-09-19T02:32:24;98918.98;;;17.79;89.97
76753;BME280;65687;51.308;16.916;2023-09-19T02:37:25;98916.65;;;17.75;90.09
76753;BME280;65687;51.308;16.916;2023-09-19T02:42:26;98918.82;;;17.72;90.12
76753;BME280;65687;51.308;16.916;2023-09-19T02:47:27;98920.41;;;17.66;90.35
76753;BME280;65687;51.308;16.916;2023-09-19T02:52:29;98923.10;;;17.59;90.76
76753;BME280;65687;51.308;16.916;2023-09-19T02:57:30;98922.17;;;17.55;91.00
76753;BME280;65687;51.308;16.916;2023-09-19T03:02:32;98926.81;;;17.56;91.14
76753;BME280;65687;51.308;16.916;2023-09-19T03:07:35;98925.63;;;17.56;90.94
76753;BME280;65687;51.308;16.916;2023-09-19T03:12:38;98920.35;;;17.50;91.35
76753;BME280;65687;51.308;16.916;2023-09-19T03:17:44;98917.77;;;17.49;91.52
76753;BME280;65687;51.308;16.916;2023-09-19T03:22:46;98925.92;;;17.47;91.62
76753;BME280;65687;51.308;16.916;2023-09-19T03:27:47;98926.09;;;17.48;91.69
76753;BME280;65687;51.308;16.916;2023-09-19T03:32:48;98923.19;;;17.47;91.86
76753;BME280;65687;51.308;16.916;2023-09-19T03:37:50;98929.51;;;17.47;91.85
76753;BME280;65687;51.308;16.916;2023-09-19T03:42:53;98926.77;;;17.47;92.17
76753;BME280;65687;51.308;16.916;2023-09-19T03:47:54;98929.10;;;17.45;92.30
76753;BME280;65687;51.308;16.916;2023-09-19T03:52:58;98930.79;;;17.45;92.47
76753;BME280;65687;51.308;16.916;2023-09-19T03:57:59;98933.55;;;17.45;92.79
76753;BME280;65687;51.308;16.916;2023-09-19T04:03:00;98930.25;;;17.43;92.91
76753;BME280;65687;51.308;16.916;2023-09-19T04:08:03;98929.52;;;17.40;93.02
76753;BME280;65687;51.308;16.916;2023-09-19T04:13:04;98926.64;;;17.35;93.20
76753;BME280;65687;51.308;16.916;2023-09-19T04:18:05;98926.11;;;17.33;93.29
76753;BME280;65687;51.308;16.916;2023-09-19T04:23:06;98931.52;;;17.31;93.16
76753;BME280;65687;51.308;16.916;2023-09-19T04:28:08;98932.28;;;17.28;93.30
76753;BME280;65687;51.308;16.916;2023-09-19T04:33:11;98937.16;;;17.24;93.38
76753;BME280;65687;51.308;16.916;2023-09-19T04:38:15;98936.71;;;17.20;93.65
76753;BME280;65687;51.308;16.916;2023-09-19T04:43:16;98943.28;;;17.17;93.73
76753;BME280;65687;51.308;16.916;2023-09-19T04:48:17;98937.50;;;17.11;94.02
76753;BME280;65687;51.308;16.916;2023-09-19T04:53:18;98942.23;;;17.09;94.35
76753;BME280;65687;51.308;16.916;2023-09-19T04:58:22;98945.77;;;17.07;94.34
76753;BME280;65687;51.308;16.916;2023-09-19T05:03:23;98953.20;;;17.04;94.48
76753;BME280;65687;51.308;16.916;2023-09-19T05:08:24;98963.91;;;17.02;94.60
76753;BME280;65687;51.308;16.916;2023-09-19T05:13:26;98961.33;;;17.01;94.62
76753;BME280;65687;51.308;16.916;2023-09-19T05:18:28;98964.59;;;17.02;94.55
76753;BME280;65687;51.308;16.916;2023-09-19T05:23:29;98967.85;;;17.03;94.56
76753;BME280;65687;51.308;16.916;2023-09-19T05:28:30;98971.17;;;17.06;94.36
76753;BME280;65687;51.308;16.916;2023-09-19T05:33:30;98971.36;;;17.07;94.33
76753;BME280;65687;51.308;16.916;2023-09-19T05:38:32;98972.60;;;17.08;94.65
76753;BME280;65687;51.308;16.916;2023-09-19T05:43:33;98974.15;;;17.09;94.76
76753;BME280;65687;51.308;16.916;2023-09-19T05:48:34;98979.08;;;17.08;94.74
76753;BME280;65687;51.308;16.916;2023-09-19T05:53:35;98985.77;;;17.10;94.71
76753;BME280;65687;51.308;16.916;2023-09-19T05:58:36;98993.48;;;17.11;94.48
76753;BME280;65687;51.308;16.916;2023-09-19T06:03:37;99005.46;;;17.13;94.57
76753;BME280;65687;51.308;16.916;2023-09-19T06:08:38;99010.34;;;17.16;94.35
76753;BME280;65687;51.308;16.916;2023-09-19T06:13:39;99027.11;;;17.18;94.06
76753;BME280;65687;51.308;16.916;2023-09-19T06:18:40;99034.83;;;17.20;94.04
76753;BME280;65687;51.308;16.916;2023-09-19T06:23:41;99041.04;;;17.22;93.99
76753;BME280;65687;51.308;16.916;2023-09-19T06:28:42;99043.49;;;17.24;93.81
76753;BME280;65687;51.308;16.916;2023-09-19T06:33:43;99027.48;;;17.26;93.50
76753;BME280;65687;51.308;16.916;2023-09-19T06:38:44;99024.80;;;17.28;92.81
76753;BME280;65687;51.308;16.916;2023-09-19T06:43:45;99041.75;;;17.30;92.71
76753;BME280;65687;51.308;16.916;2023-09-19T06:48:46;99044.90;;;17.33;92.42
76753;BME280;65687;51.308;16.916;2023-09-19T06:53:48;99049.60;;;17.37;92.00
76753;BME280;65687;51.308;16.916;2023-09-19T06:58:49;99055.73;;;17.43;91.97
76753;BME280;65687;51.308;16.916;2023-09-19T07:03:50;99064.58;;;17.49;91.30
76753;BME280;65687;51.308;16.916;2023-09-19T07:08:51;99070.41;;;17.56;91.04
76753;BME280;65687;51.308;16.916;2023-09-19T07:13:53;99082.13;;;17.66;90.54
76753;BME280;65687;51.308;16.916;2023-09-19T07:18:55;99088.23;;;17.72;90.03
76753;BME280;65687;51.308;16.916;2023-09-19T07:23:57;99093.44;;;17.75;89.47
76753;BME280;65687;51.308;16.916;2023-09-19T07:28:58;99095.41;;;17.86;89.25
76753;BME280;65687;51.308;16.916;2023-09-19T07:33:59;99097.50;;;18.02;88.97
76753;BME280;65687;51.308;16.916;2023-09-19T07:39:00;99105.89;;;18.10;88.23
76753;BME280;65687;51.308;16.916;2023-09-19T07:44:01;99113.83;;;18.13;87.92
76753;BME280;65687;51.308;16.916;2023-09-19T07:49:02;99114.88;;;18.22;87.75
76753;BME280;65687;51.308;16.916;2023-09-19T07:54:03;99120.83;;;18.35;87.28
76753;BME280;65687;51.308;16.916;2023-09-19T07:59:04;99124.32;;;18.38;85.84
76753;BME280;65687;51.308;16.916;2023-09-19T08:04:05;99123.86;;;18.33;85.61
76753;BME280;65687;51.308;16.916;2023-09-19T08:09:06;99130.08;;;18.28;85.54
76753;BME280;65687;51.308;16.916;2023-09-19T08:14:10;99133.95;;;18.25;85.35
76753;BME280;65687;51.308;16.916;2023-09-19T08:19:15;99139.77;;;18.25;85.21
76753;BME280;65687;51.308;16.916;2023-09-19T08:24:15;99145.23;;;18.25;85.30
76753;BME280;65687;51.308;16.916;2023-09-19T08:29:17;99150.08;;;18.28;84.93
76753;BME280;65687;51.308;16.916;2023-09-19T08:34:18;99160.52;;;18.36;84.99
76753;BME280;65687;51.308;16.916;2023-09-19T08:39:19;99162.54;;;18.41;84.34
76753;BME280;65687;51.308;16.916;2023-09-19T08:44:20;99167.40;;;18.45;83.62
76753;BME280;65687;51.308;16.916;2023-09-19T08:54:37;99176.77;;;18.45;83.07
76753;BME280;65687;51.308;16.916;2023-09-19T08:59:41;99171.34;;;18.46;82.99
76753;BME280;65687;51.308;16.916;2023-09-19T09:04:43;99179.32;;;18.58;82.65
76753;BME280;65687;51.308;16.916;2023-09-19T09:09:45;99183.06;;;18.71;82.16
76753;BME280;65687;51.308;16.916;2023-09-19T09:14:46;99187.00;;;18.79;81.72
76753;BME280;65687;51.308;16.916;2023-09-19T09:19:53;99189.64;;;18.99;81.37
76753;BME280;65687;51.308;16.916;2023-09-19T09:24:56;99192.48;;;19.38;79.99
76753;BME280;65687;51.308;16.916;2023-09-19T09:30:06;99202.74;;;19.45;78.43
76753;BME280;65687;51.308;16.916;2023-09-19T09:35:08;99206.98;;;19.49;78.19
76753;BME280;65687;51.308;16.916;2023-09-19T09:40:15;99213.39;;;19.46;78.50
76753;BME280;65687;51.308;16.916;2023-09-19T09:45:25;99215.29;;;19.47;77.97
76753;BME280;65687;51.308;16.916;2023-09-19T09:50:36;99216.95;;;19.70;77.41
76753;BME280;65687;51.308;16.916;2023-09-19T10:01:06;99225.02;;;19.89;75.85
76753;BME280;65687;51.308;16.916;2023-09-19T10:06:12;99227.29;;;19.92;76.27
76753;BME280;65687;51.308;16.916;2023-09-19T10:11:25;99237.95;;;19.93;75.24
76753;BME280;65687;51.308;16.916;2023-09-19T10:16:32;99242.03;;;19.92;74.55
76753;BME280;65687;51.308;16.916;2023-09-19T10:21:34;99242.65;;;19.98;74.12
76753;BME280;65687;51.308;16.916;2023-09-19T10:26:37;99245.25;;;20.10;74.37
76753;BME280;65687;51.308;16.916;2023-09-19T10:31:41;99253.17;;;20.21;73.95
76753;BME280;65687;51.308;16.916;2023-09-19T10:36:48;99264.70;;;20.42;72.10
76753;BME280;65687;51.308;16.916;2023-09-19T10:41:53;99262.56;;;20.28;69.99
76753;BME280;65687;51.308;16.916;2023-09-19T10:46:59;99272.02;;;20.01;69.79
76753;BME280;65687;51.308;16.916;2023-09-19T10:52:02;99278.14;;;19.89;69.73
76753;BME280;65687;51.308;16.916;2023-09-19T10:57:03;99271.48;;;20.18;69.32
76753;BME280;65687;51.308;16.916;2023-09-19T11:02:16;99273.57;;;20.50;68.15
76753;BME280;65687;51.308;16.916;2023-09-19T11:07:18;99270.23;;;20.56;66.65
76753;BME280;65687;51.308;16.916;2023-09-19T11:17:42;99270.77;;;20.79;66.16
76753;BME280;65687;51.308;16.916;2023-09-19T11:33:21;99278.14;;;20.57;64.66
76753;BME280;65687;51.308;16.916;2023-09-19T11:49:08;99274.58;;;20.38;65.39
76753;BME280;65687;51.308;16.916;2023-09-19T11:54:16;99273.04;;;20.39;64.62
76753;BME280;65687;51.308;16.916;2023-09-19T11:59:26;99273.89;;;20.39;64.40
76753;BME280;65687;51.308;16.916;2023-09-19T12:04:39;99276.50;;;20.40;64.13
76753;BME280;65687;51.308;16.916;2023-09-19T12:09:43;99275.34;;;20.42;63.03
76753;BME280;65687;51.308;16.916;2023-09-19T12:14:49;99269.72;;;20.45;61.81
76753;BME280;65687;51.308;16.916;2023-09-19T12:19:52;99273.92;;;20.50;62.69
76753;BME280;65687;51.308;16.916;2023-09-19T12:25:05;99271.74;;;20.54;61.24
76753;BME280;65687;51.308;16.916;2023-09-19T12:30:07;99276.73;;;20.65;60.47
76753;BME280;65687;51.308;16.916;2023-09-19T12:35:09;99272.13;;;20.78;59.00
76753;BME280;65687;51.308;16.916;2023-09-19T12:40:12;99274.79;;;20.84;57.75
76753;BME280;65687;51.308;16.916;2023-09-19T12:45:22;99269.95;;;20.82;55.93
76753;BME280;65687;51.308;16.916;2023-09-19T12:50:23;99271.30;;;20.68;56.43
76753;BME280;65687;51.308;16.916;2023-09-19T12:55:30;99267.72;;;20.58;57.54
76753;BME280;65687;51.308;16.916;2023-09-19T13:00:41;99268.16;;;20.55;57.03
76753;BME280;65687;51.308;16.916;2023-09-19T13:05:56;99262.31;;;20.54;56.99
76753;BME280;65687;51.308;16.916;2023-09-19T13:11:08;99256.77;;;20.60;56.72
76753;BME280;65687;51.308;16.916;2023-09-19T13:16:16;99252.13;;;20.71;54.83
76753;BME280;65687;51.308;16.916;2023-09-19T13:21:30;99249.29;;;20.77;53.80
76753;BME280;65687;51.308;16.916;2023-09-19T13:26:38;99250.71;;;20.80;53.54
76753;BME280;65687;51.308;16.916;2023-09-19T13:31:39;99249.36;;;20.82;53.71
76753;BME280;65687;51.308;16.916;2023-09-19T13:36:42;99250.59;;;20.84;53.37
76753;BME280;65687;51.308;16.916;2023-09-19T13:41:44;99244.43;;;20.86;53.97
76753;BME280;65687;51.308;16.916;2023-09-19T13:46:45;99242.73;;;20.87;54.10
76753;BME280;65687;51.308;16.916;2023-09-19T13:51:47;99247.08;;;20.90;54.03
76753;BME280;65687;51.308;16.916;2023-09-19T13:56:48;99246.90;;;20.91;52.50
76753;BME280;65687;51.308;16.916;2023-09-19T14:01:49;99253.27;;;20.90;52.86
76753;BME280;65687;51.308;16.916;2023-09-19T14:06:51;99253.58;;;20.89;52.21
76753;BME280;65687;51.308;16.916;2023-09-19T14:11:52;99254.38;;;20.85;52.07
76753;BME280;65687;51.308;16.916;2023-09-19T14:16:53;99249.20;;;20.83;52.77
76753;BME280;65687;51.308;16.916;2023-09-19T14:21:54;99247.33;;;20.85;53.27
76753;BME280;65687;51.308;16.916;2023-09-19T14:26:58;99249.98;;;20.89;53.36
76753;BME280;65687;51.308;16.916;2023-09-19T14:31:59;99255.03;;;20.94;52.78
76753;BME280;65687;51.308;16.916;2023-09-19T14:37:00;99257.30;;;20.96;52.93
76753;BME280;65687;51.308;16.916;2023-09-19T14:42:01;99258.69;;;20.98;53.21
76753;BME280;65687;51.308;16.916;2023-09-19T14:47:03;99255.27;;;20.99;52.36
76753;BME280;65687;51.308;16.916;2023-09-19T14:52:07;99256.33;;;21.01;52.81
76753;BME280;65687;51.308;16.916;2023-09-19T14:57:09;99260.30;;;21.03;52.22
76753;BME280;65687;51.308;16.916;2023-09-19T15:02:10;99256.20;;;21.03;52.89
76753;BME280;65687;51.308;16.916;2023-09-19T15:07:11;99254.45;;;21.02;53.81
76753;BME280;65687;51.308;16.916;2023-09-19T15:12:12;99262.84;;;21.01;54.66
76753;BME280;65687;51.308;16.916;2023-09-19T15:17:14;99265.88;;;20.96;54.45
76753;BME280;65687;51.308;16.916;2023-09-19T15:22:16;99268.04;;;20.91;55.26
76753;BME280;65687;51.308;16.916;2023-09-19T15:27:17;99268.62;;;20.85;55.90
76753;BME280;65687;51.308;16.916;2023-09-19T15:32:20;99265.88;;;20.74;59.82
76753;BME280;65687;51.308;16.916;2023-09-19T15:37:21;99270.04;;;20.53;60.96
76753;BME280;65687;51.308;16.916;2023-09-19T15:42:23;99265.71;;;20.41;59.29
76753;BME280;65687;51.308;16.916;2023-09-19T15:47:23;99265.70;;;20.32;61.90
76753;BME280;65687;51.308;16.916;2023-09-19T15:52:24;99266.13;;;20.17;62.19
76753;BME280;65687;51.308;16.916;2023-09-19T15:57:27;99267.69;;;20.18;58.36
76753;BME280;65687;51.308;16.916;2023-09-19T16:02:29;99270.52;;;20.23;56.61
76753;BME280;65687;51.308;16.916;2023-09-19T16:07:30;99275.66;;;20.23;56.96
76753;BME280;65687;51.308;16.916;2023-09-19T16:12:30;99280.05;;;20.19;56.43
76753;BME280;65687;51.308;16.916;2023-09-19T16:17:32;99286.98;;;20.14;55.80
76753;BME280;65687;51.308;16.916;2023-09-19T16:22:32;99289.09;;;20.07;59.71
76753;BME280;65687;51.308;16.916;2023-09-19T16:27:34;99289.91;;;19.86;63.30
76753;BME280;65687;51.308;16.916;2023-09-19T16:32:35;99291.08;;;19.58;64.63
76753;BME280;65687;51.308;16.916;2023-09-19T16:37:37;99294.56;;;19.30;65.40
76753;BME280;65687;51.308;16.916;2023-09-19T16:42:39;99297.88;;;19.02;65.71
76753;BME280;65687;51.308;16.916;2023-09-19T16:47:41;99299.35;;;18.84;64.57
76753;BME280;65687;51.308;16.916;2023-09-19T16:52:42;99303.60;;;18.68;64.63
76753;BME280;65687;51.308;16.916;2023-09-19T16:57:42;99311.73;;;18.46;67.11
76753;BME280;65687;51.308;16.916;2023-09-19T17:02:46;99317.39;;;18.26;69.45
76753;BME280;65687;51.308;16.916;2023-09-19T17:07:47;99317.19;;;18.05;69.41
76753;BME280;65687;51.308;16.916;2023-09-19T17:12:48;99325.94;;;17.94;67.75
76753;BME280;65687;51.308;16.916;2023-09-19T17:17:50;99335.36;;;17.83;67.54
76753;BME280;65687;51.308;16.916;2023-09-19T17:22:53;99336.75;;;17.66;67.83
76753;BME280;65687;51.308;16.916;2023-09-19T17:27:54;99337.01;;;17.52;68.08
76753;BME280;65687;51.308;16.916;2023-09-19T17:32:55;99346.23;;;17.41;68.11
76753;BME280;65687;51.308;16.916;2023-09-19T17:37:56;99350.51;;;17.29;68.70
76753;BME280;65687;51.308;16.916;2023-09-19T17:42:58;99353.09;;;17.19;68.77
76753;BME280;65687;51.308;16.916;2023-09-19T17:47:59;99358.20;;;17.08;69.54
76753;BME280;65687;51.308;16.916;2023-09-19T17:53:00;99357.30;;;16.96;70.05
76753;BME280;65687;51.308;16.916;2023-09-19T17:58:02;99360.17;;;16.84;69.83
76753;BME280;65687;51.308;16.916;2023-09-19T18:03:04;99368.94;;;16.76;69.53
76753;BME280;65687;51.308;16.916;2023-09-19T18:08:06;99368.83;;;16.68;69.47
76753;BME280;65687;51.308;16.916;2023-09-19T18:13:07;99375.45;;;16.57;70.32
76753;BME280;65687;51.308;16.916;2023-09-19T18:18:09;99376.27;;;16.46;70.24
76753;BME280;65687;51.308;16.916;2023-09-19T18:23:14;99377.54;;;16.38;69.97
76753;BME280;65687;51.308;16.916;2023-09-19T18:28:16;99382.71;;;16.31;70.42
76753;BME280;65687;51.308;16.916;2023-09-19T18:33:18;99388.23;;;16.18;70.99
76753;BME280;65687;51.308;16.916;2023-09-19T18:38:20;99386.31;;;16.07;71.88
76753;BME280;65687;51.308;16.916;2023-09-19T18:43:22;99390.84;;;16.00;71.31
76753;BME280;65687;51.308;16.916;2023-09-19T18:48:23;99387.25;;;15.95;71.13
76753;BME280;65687;51.308;16.916;2023-09-19T18:53:23;99390.64;;;15.86;71.88
76753;BME280;65687;51.308;16.916;2023-09-19T18:58:26;99393.52;;;15.71;72.71
76753;BME280;65687;51.308;16.916;2023-09-19T19:03:28;99397.50;;;15.60;73.07
76753;BME280;65687;51.308;16.916;2023-09-19T19:08:29;99400.49;;;15.50;72.99
76753;BME280;65687;51.308;16.916;2023-09-19T19:13:32;99401.17;;;15.41;72.65
76753;BME280;65687;51.308;16.916;2023-09-19T19:18:33;99402.05;;;15.33;72.66
76753;BME280;65687;51.308;16.916;2023-09-19T19:23:34;99406.56;;;15.26;72.50
76753;BME280;65687;51.308;16.916;2023-09-19T19:28:35;99411.48;;;15.17;73.27
76753;BME280;65687;51.308;16.916;2023-09-19T19:33:37;99413.89;;;15.10;72.71
76753;BME280;65687;51.308;16.916;2023-09-19T19:38:39;99408.92;;;15.00;72.68
76753;BME280;65687;51.308;16.916;2023-09-19T19:43:40;99416.29;;;14.93;72.88
76753;BME280;65687;51.308;16.916;2023-09-19T19:48:49;99416.96;;;14.85;73.37
76753;BME280;65687;51.308;16.916;2023-09-19T19:53:52;99414.83;;;14.79;72.94
76753;BME280;65687;51.308;16.916;2023-09-19T19:58:55;99423.14;;;14.74;73.18
76753;BME280;65687;51.308;16.916;2023-09-19T20:03:57;99422.52;;;14.71;73.14
76753;BME280;65687;51.308;16.916;2023-09-19T20:08:58;99422.23;;;14.69;73.03
76753;BME280;65687;51.308;16.916;2023-09-19T20:14:00;99421.73;;;14.56;73.76
76753;BME280;65687;51.308;16.916;2023-09-19T20:19:04;99430.40;;;14.49;74.07
76753;BME280;65687;51.308;16.916;2023-09-19T20:24:05;99433.10;;;14.44;74.40
76753;BME280;65687;51.308;16.916;2023-09-19T20:29:06;99434.45;;;14.44;74.57
76753;BME280;65687;51.308;16.916;2023-09-19T20:34:08;99434.67;;;14.45;74.61
76753;BME280;65687;51.308;16.916;2023-09-19T20:39:10;99436.80;;;14.43;74.52
76753;BME280;65687;51.308;16.916;2023-09-19T20:44:10;99442.66;;;14.38;74.77
76753;BME280;65687;51.308;16.916;2023-09-19T20:49:11;99446.15;;;14.37;74.87
76753;BME280;65687;51.308;16.916;2023-09-19T20:54:12;99443.13;;;14.34;74.99
76753;BME280;65687;51.308;16.916;2023-09-19T20:59:17;99446.36;;;14.26;75.53
76753;BME280;65687;51.308;16.916;2023-09-19T21:04:18;99445.38;;;14.19;75.66
76753;BME280;65687;51.308;16.916;2023-09-19T21:09:19;99448.27;;;14.15;75.90
76753;BME280;65687;51.308;16.916;2023-09-19T21:14:20;99450.73;;;14.13;76.48
76753;BME280;65687;51.308;16.916;2023-09-19T21:19:21;99453.89;;;14.12;76.91
76753;BME280;65687;51.308;16.916;2023-09-19T21:24:23;99452.48;;;14.06;77.23
76753;BME280;65687;51.308;16.916;2023-09-19T21:29:31;99458.04;;;14.02;78.03
76753;BME280;65687;51.308;16.916;2023-09-19T21:34:32;99465.29;;;13.97;77.92
76753;BME280;65687;51.308;16.916;2023-09-19T21:39:32;99467.67;;;13.94;78.50
76753;BME280;65687;51.308;16.916;2023-09-19T21:44:33;99464.59;;;13.89;78.49
76753;BME280;65687;51.308;16.916;2023-09-19T21:49:34;99465.11;;;13.82;79.29
76753;BME280;65687;51.308;16.916;2023-09-19T21:54:35;99463.19;;;13.77;79.64
76753;BME280;65687;51.308;16.916;2023-09-19T21:59:36;99461.63;;;13.73;80.03
76753;BME280;65687;51.308;16.916;2023-09-19T22:04:37;99458.23;;;13.65;80.39
76753;BME280;65687;51.308;16.916;2023-09-19T22:09:38;99461.44;;;13.58;80.75
76753;BME280;65687;51.308;16.916;2023-09-19T22:14:39;99460.21;;;13.50;81.19
76753;BME280;65687;51.308;16.916;2023-09-19T22:19:40;99465.28;;;13.42;81.99
76753;BME280;65687;51.308;16.916;2023-09-19T22:24:44;99461.48;;;13.41;81.98
76753;BME280;65687;51.308;16.916;2023-09-19T22:29:45;99461.13;;;13.37;82.29
76753;BME280;65687;51.308;16.916;2023-09-19T22:34:46;99459.77;;;13.30;82.85
76753;BME280;65687;51.308;16.916;2023-09-19T22:39:50;99454.54;;;13.27;83.20
76753;BME280;65687;51.308;16.916;2023-09-19T22:44:51;99456.59;;;13.27;83.36
76753;BME280;65687;51.308;16.916;2023-09-19T22:49:55;99458.79;;;13.27;83.55
76753;BME280;65687;51.308;16.916;2023-09-19T22:54:56;99461.47;;;13.27;83.65
76753;BME280;65687;51.308;16.916;2023-09-19T22:59:59;99466.59;;;13.24;83.84
76753;BME280;65687;51.308;16.916;2023-09-19T23:05:00;99467.59;;;13.20;84.36
76753;BME280;65687;51.308;16.916;2023-09-19T23:10:02;99471.11;;;13.19;84.45
76753;BME280;65687;51.308;16.916;2023-09-19T23:15:07;99469.70;;;13.22;84.63
76753;BME280;65687;51.308;16.916;2023-09-19T23:20:11;99474.35;;;13.16;84.93
76753;BME280;65687;51.308;16.916;2023-09-19T23:25:25;99473.42;;;13.18;85.01
76753;BME280;65687;51.308;16.916;2023-09-19T23:30:31;99476.27;;;13.14;85.15
76753;BME280;65687;51.308;16.916;2023-09-19T23:35:33;99475.45;;;13.11;85.24
76753;BME280;65687;51.308;16.916;2023-09-19T23:40:34;99476.53;;;13.09;84.55
76753;BME280;65687;51.308;16.916;2023-09-19T23:45:38;99483.89;;;13.07;84.52
76753;BME280;65687;51.308;16.916;2023-09-19T23:50:40;99491.59;;;13.05;84.37
76753;BME280;65687;51.308;16.916;2023-09-19T23:55:44;99496.84;;;13.02;84.12
